Terminal Aerodrome Forecast
Issued by NWS Wilmington, OH

Current Version | Previous Version | Graphics & Text | Print | Product List | Glossary On
Versions: 1 2 3 4 5 6 7 8 9 10 11 12 13 14
261
FTUS41 KILN 031127
TAFILN
TAF
KILN 031127Z 0312/0412 21013G23KT P6SM BKN015 OVC025
     FM031400 22012G22KT P6SM SCT025
     FM031600 24018G28KT P6SM BKN035
     FM040200 26015G22KT P6SM OVC025
     FM040900 26010KT P6SM OVC018=

USA.gov is the U.S. government's official web portal to all federal, state and local government web resources and services.